Abertillery, United Kingdom
Current Conditions -  °F | °C
As of 12:20 AM on Monday 26 Jan 2015 (Local Time) from EGFF Reporting Station
Overcast Overcast  
Wind Chill: 44°   Ceiling: 400
Heat Index: 48°   Visibility: 6mi
Dew Point: 46°   Wind: 10mph
Humidity: 93%   Direction: 250°WSW
Pressure: 30.27"   Gusts: NA
Location:  51.73°N, 3.13°W
Report Text: EGFF 260020Z AUTO 25009KT 9999 BKN004 BKN013 OVC023 09/08 Q1025
Loading
Personal Weather Stations






























Interactive Weather Map New forecast layout! Learn more

10-Day Weather Forecast

Advertisements
Track Severe Weather on mobile